This demonstration page uses our WeatherBlox Daily Observations layout. Learn more.

36.17497, -115.13722

Hourly Observations for March 8, 2018

Temp ( °F °C ) Dew Point ( °F °C ) Humidity (%) Winds ( mph kmh ) Pressure ( in mb ) Visibility ( mi km ) Precip ( " mm )
12:53 am 00:53 Clear 51 10.6 3 -16.1 14 14 NNW 9 15 30.11 1020 10 16.0934 0 0
1:53 am 01:53 Clear 46 7.8 7 -13.9 20 20 Calm 30.11 1020 10 16.0934 0 0
2:53 am 02:53 Clear 46 7.8 7 -13.9 20 20 WNW 5 7 30.1 1019 10 16.0934 0 0
3:53 am 03:53 Clear 44 6.7 7 -13.9 22 22 NNW 7 11 30.11 1020 10 16.0934 0 0
4:53 am 04:53 Clear 42 5.6 9 -12.8 25 25 NNW 6 9 30.1 1019 10 16.0934 0 0
5:53 am 05:53 Clear 44 6.7 9 -12.8 24 24 W 3 6 30.12 1020 10 16.0934 0 0
6:53 am 06:53 Sunny 44 6.7 12 -11.1 27 27 NNW 5 7 30.14 1021 10 16.0934 0 0
7:53 am 07:53 Sunny 51 10.6 9 -12.8 18 18 Calm 30.14 1021 10 16.0934 0 0
8:53 am 08:53 Sunny 54 12.2 4 -15.6 13 13 Calm 30.15 1021 10 16.0934 0 0
9:53 am 09:53 Sunny 57 13.9 6 -14.4 13 13 VRB 5 7 30.15 1021 10 16.0934 0 0
10:53 am 10:53 Sunny 61 16.1 5 -15 10 10 Calm 30.13 1020 10 16.0934 0 0
11:53 am 11:53 Sunny 63 17.2 3 -16.1 9 9 VRB 5 7 30.1 1019 10 16.0934 0 0
12:53 pm 12:53 Sunny 65 18.3 1 -17.2 8 8 ESE 5 7 30.06 1018 10 16.0934 0 0
1:53 pm 13:53 Sunny 67 19.4 0 -17.8 7 7 E 6 9 30.03 1017 10 16.0934 0 0
2:53 pm 14:53 Sunny 69 20.6 3 -16.1 7 7 E 3 6 30.01 1016 10 16.0934 0 0
3:53 pm 15:53 Sunny 69 20.6 3 -16.1 7 7 Calm 30 1016 10 16.0934 0 0
4:53 pm 16:53 Sunny 69 20.6 3 -16.1 7 7 Calm 29.99 1016 10 16.0934 0 0
5:53 pm 17:53 Clear 67 19.4 5 -15 8 8 Calm 29.99 1016 10 16.0934 0 0
6:53 pm 18:53 Clear 63 17.2 10 -12.2 12 12 Calm 30 1016 10 16.0934 0 0
7:53 pm 19:53 Clear 58 14.4 14 -10 18 18 NW 6 9 30.01 1016 10 16.0934 0 0
8:53 pm 20:53 Clear 55 12.8 13 -10.6 19 19 NNW 5 7 30.01 1016 10 16.0934 0 0
9:53 pm 21:53 Clear 54 12.2 15 -9.4 21 21 NW 5 7 30 1016 10 16.0934 0 0
10:53 pm 22:53 Clear 51 10.6 15 -9.4 24 24 NW 5 7 29.98 1015 10 16.0934 0 0
11:53 pm 23:53 Clear 50 10 13 -10.6 22 22 NW 6 9 29.97 1015 10 16.0934 0 0

Powered by AerisWeather